Time;durP1;ratioP1;P1;durP2;ratioP2;P2;SDS_P1;SDS_P2;PMS_P1;PMS_P2;Temp;Humidity;BMP_temperature;BMP_pressure;BME280_temperature;BME280_humidity;BME280_pressure;Samples;Min_cycle;Max_cycle;Signal;HPM_P1;HPM_P2
2022/03/03 00:00:45;;;;;;;35.60;13.58;;;;;;;6.00;78.93;100604.34;1854192;77;21047;-67
2022/03/03 00:03:13;;;;;;;29.67;13.88;;;;;;;6.00;78.96;100599.11;1854309;77;21050;-66
2022/03/03 00:05:42;;;;;;;36.53;14.43;;;;;;;5.99;78.98;100599.57;1858354;76;21176;-62
2022/03/03 00:08:11;;;;;;;27.52;12.75;;;;;;;5.97;79.13;100605.70;1884252;76;21527;-67
2022/03/03 00:10:39;;;;;;;34.85;15.75;;;;;;;5.95;79.15;100600.93;1884180;76;21082;-69
2022/03/03 00:13:08;;;;;;;36.45;14.10;;;;;;;5.95;79.16;100600.93;1884099;76;21121;-73
2022/03/03 00:15:37;;;;;;;34.80;14.33;;;;;;;5.96;79.17;100590.94;1884218;76;21587;-67
2022/03/03 00:18:06;;;;;;;31.90;14.10;;;;;;;5.95;79.21;100577.41;1884216;76;21074;-66
2022/03/03 00:20:35;;;;;;;34.98;14.47;;;;;;;5.96;79.20;100564.80;1884219;76;21046;-66
2022/03/03 00:23:04;;;;;;;32.28;13.18;;;;;;;5.95;79.21;100557.38;1888729;75;21173;-66
2022/03/03 00:25:33;;;;;;;31.10;13.62;;;;;;;5.95;79.23;100547.36;1883449;76;21128;-66
2022/03/03 00:28:06;;;;;;;29.00;13.78;;;;;;;5.93;79.26;100554.38;1883665;76;21477;-67
2022/03/03 00:30:35;;;;;;;29.30;12.90;;;;;;;5.94;79.29;100546.95;1874068;76;21027;-64
2022/03/03 00:33:03;;;;;;;31.80;13.18;;;;;;;5.92;79.28;100533.05;1852343;77;21063;-65
2022/03/03 00:35:32;;;;;;;32.65;14.68;;;;;;;5.92;79.30;100523.89;1848877;77;21447;-62
2022/03/03 00:38:01;;;;;;;35.55;14.58;;;;;;;5.90;79.34;100517.84;1847352;77;21523;-62
2022/03/03 00:40:29;;;;;;;40.00;14.80;;;;;;;5.91;79.33;100518.27;1847512;78;21062;-62
2022/03/03 00:42:58;;;;;;;34.55;13.90;;;;;;;5.91;79.30;100512.59;1847498;78;21048;-62
2022/03/03 00:45:27;;;;;;;40.23;15.80;;;;;;;5.91;79.35;100510.44;1847412;78;21130;-62
2022/03/03 00:47:55;;;;;;;36.25;14.90;;;;;;;5.91;79.42;100510.44;1847497;78;21505;-61
2022/03/03 00:50:24;;;;;;;38.02;14.63;;;;;;;5.90;79.46;100494.33;1847267;78;21100;-61
2022/03/03 00:52:54;;;;;;;32.58;13.45;;;;;;;5.90;79.48;100500.86;1847435;78;21036;-61
2022/03/03 00:55:23;;;;;;;33.50;13.72;;;;;;;5.91;79.45;100505.20;1847579;78;21555;-62
2022/03/03 00:57:52;;;;;;;33.80;14.28;;;;;;;5.91;79.41;100493.45;1870771;76;21054;-61
2022/03/03 01:00:20;;;;;;;29.48;13.72;;;;;;;5.91;79.40;100483.00;1881117;76;21105;-62
2022/03/03 01:02:51;;;;;;;31.40;13.72;;;;;;;5.89;79.39;100478.26;1852519;76;21026;-64
2022/03/03 01:05:19;;;;;;;35.83;14.35;;;;;;;5.88;79.44;100476.06;1847434;78;21043;-63
2022/03/03 01:07:48;;;;;;;30.32;13.45;;;;;;;5.89;79.41;100476.49;1848411;76;21029;-62
2022/03/03 01:10:17;;;;;;;40.33;15.13;;;;;;;5.89;79.44;100470.41;1855923;76;21110;-61
2022/03/03 01:12:46;;;;;;;38.85;14.55;;;;;;;5.88;79.44;100467.37;1846192;77;21018;-60
2022/03/03 01:15:15;;;;;;;40.63;15.53;;;;;;;5.88;79.41;100445.17;1841985;78;21063;-61
2022/03/03 01:17:43;;;;;;;46.15;16.40;;;;;;;5.85;79.45;100434.81;1874333;76;21579;-61
2022/03/03 01:20:12;;;;;;;38.58;14.38;;;;;;;5.84;79.47;100455.29;1880592;76;21136;-60
2022/03/03 01:22:42;;;;;;;41.08;16.50;;;;;;;5.82;79.51;100461.85;1880411;76;21050;-61
2022/03/03 01:25:11;;;;;;;45.92;16.73;;;;;;;5.82;79.51;100470.15;1818752;78;21145;-60
2022/03/03 01:27:40;;;;;;;39.05;14.55;;;;;;;5.85;79.51;100476.63;1870379;76;21101;-61
2022/03/03 01:30:10;;;;;;;33.30;13.88;;;;;;;5.85;79.53;100468.78;1841817;78;21477;-61
2022/03/03 01:32:40;;;;;;;35.25;14.30;;;;;;;5.83;79.53;100458.36;1841671;78;21136;-61
2022/03/03 01:35:09;;;;;;;38.83;15.60;;;;;;;5.82;79.51;100453.16;1873989;76;21513;-61
2022/03/03 01:37:38;;;;;;;36.83;15.48;;;;;;;5.80;79.52;100452.73;1878902;76;21039;-61
2022/03/03 01:40:08;;;;;;;39.88;15.23;;;;;;;5.80;79.55;100454.05;1886635;75;21121;-61
2022/03/03 01:42:36;;;;;;;30.95;12.60;;;;;;;5.80;79.64;100457.97;1885675;76;21014;-60
2022/03/03 01:45:06;;;;;;;31.65;12.45;;;;;;;5.80;79.65;100444.90;1886151;76;21014;-61
2022/03/03 01:47:35;;;;;;;35.23;13.60;;;;;;;5.79;79.63;100436.67;1886274;76;21116;-60
2022/03/03 01:50:06;;;;;;;30.57;11.65;;;;;;;5.78;79.60;100428.86;1879117;75;21031;-60
2022/03/03 01:52:35;;;;;;;37.10;13.13;;;;;;;5.77;79.61;100420.17;1899217;75;21011;-59
2022/03/03 01:55:05;;;;;;;39.55;14.38;;;;;;;5.75;79.64;100421.94;1900583;75;21038;-58
2022/03/03 01:57:34;;;;;;;31.00;11.10;;;;;;;5.77;79.67;100416.26;1909782;75;21022;-58
2022/03/03 02:00:05;;;;;;;34.03;12.55;;;;;;;5.75;79.68;100415.41;1907217;75;21018;-61
2022/03/03 02:02:35;;;;;;;30.30;11.90;;;;;;;5.70;79.72;100410.77;1903259;74;21095;-60
2022/03/03 02:05:04;;;;;;;33.35;11.90;;;;;;;5.69;79.73;100402.96;1905531;75;21008;-59
2022/03/03 02:07:33;;;;;;;33.90;12.20;;;;;;;5.66;79.77;100401.27;1899103;75;21023;-60
2022/03/03 02:10:07;;;;;;;38.00;12.65;;;;;;;5.67;79.80;100403.45;1885768;75;21473;-60
2022/03/03 02:12:36;;;;;;;37.45;14.28;;;;;;;5.66;79.82;100403.88;1886362;76;21019;-62
2022/03/03 02:15:06;;;;;;;31.82;12.23;;;;;;;5.65;79.80;100398.72;1886239;76;21473;-61
2022/03/03 02:17:35;;;;;;;35.55;13.35;;;;;;;5.65;79.84;100403.94;1886232;76;21116;-61
2022/03/03 02:20:08;;;;;;;36.48;13.38;;;;;;;5.64;79.85;100408.28;1885860;76;21030;-62
2022/03/03 02:22:37;;;;;;;37.98;13.13;;;;;;;5.66;79.82;100406.48;1886395;76;21112;-62
2022/03/03 02:25:07;;;;;;;34.40;11.57;;;;;;;5.67;79.81;100402.14;1886155;76;21544;-61
2022/03/03 02:27:36;;;;;;;37.33;14.03;;;;;;;5.68;79.82;100402.53;1886062;76;21066;-60
2022/03/03 02:30:05;;;;;;;38.48;13.20;;;;;;;5.67;79.78;100402.99;1886032;76;21137;-61
2022/03/03 02:32:34;;;;;;;42.13;14.47;;;;;;;5.68;79.75;100390.78;1886099;76;21046;-62
2022/03/03 02:35:03;;;;;;;40.25;14.45;;;;;;;5.67;79.77;100380.79;1875918;76;21071;-61
2022/03/03 02:37:39;;;;;;;32.08;13.68;;;;;;;5.67;79.78;100366.42;1864771;77;21563;-62
2022/03/03 02:40:11;;;;;;;40.78;15.10;;;;;;;5.67;79.82;100359.89;1864917;76;21047;-61
2022/03/03 02:42:40;;;;;;;34.98;14.28;;;;;;;5.65;79.88;100355.16;1864877;77;21485;-61
2022/03/03 02:45:26;;;;;;;30.52;13.75;;;;;;;5.64;79.89;100347.35;1854529;76;21132;-61
2022/03/03 02:47:55;;;;;;;34.35;12.85;;;;;;;5.62;79.99;100348.69;1848038;78;21042;-62
2022/03/03 02:50:28;;;;;;;36.08;12.80;;;;;;;5.59;80.09;100347.48;1848061;78;21202;-61
2022/03/03 02:53:01;;;;;;;33.10;13.17;;;;;;;5.56;80.20;100342.33;1848251;78;21140;-61
2022/03/03 02:55:28;;;;;;;32.15;12.30;;;;;;;5.54;80.22;100324.08;1850818;77;21287;-61
2022/03/03 02:57:57;;;;;;;34.48;13.25;;;;;;;5.52;80.27;100335.47;1849090;77;21043;-60
2022/03/03 03:00:35;;;;;;;26.55;9.65;;;;;;;5.51;80.35;100327.21;1848168;78;21075;-60
2022/03/03 03:03:01;;;;;;;28.00;10.65;;;;;;;5.49;80.40;100325.09;1848150;77;21618;-61
2022/03/03 03:05:30;;;;;;;26.80;10.60;;;;;;;5.48;80.40;100329.89;1848019;78;21054;-61
2022/03/03 03:07:58;;;;;;;27.60;10.45;;;;;;;5.50;80.34;100329.44;1848046;78;21058;-63
2022/03/03 03:10:27;;;;;;;26.02;10.60;;;;;;;5.48;80.34;100329.89;1847920;78;21102;-61
2022/03/03 03:12:57;;;;;;;22.17;8.85;;;;;;;5.47;80.36;100324.27;1848222;78;21608;-61
2022/03/03 03:15:25;;;;;;;24.00;9.83;;;;;;;5.46;80.40;100314.71;1848111;78;21481;-61
2022/03/03 03:17:56;;;;;;;27.67;10.18;;;;;;;5.44;80.42;100299.53;1861571;76;21047;-61
2022/03/03 03:20:29;;;;;;;23.02;7.65;;;;;;;5.43;80.45;100293.92;1864302;77;21168;-61
2022/03/03 03:22:58;;;;;;;26.27;9.18;;;;;;;5.39;80.55;100289.22;1864623;77;21141;-58
2022/03/03 03:25:26;;;;;;;23.25;9.03;;;;;;;5.38;80.57;100292.25;1864861;77;21133;-58
2022/03/03 03:27:55;;;;;;;19.25;8.08;;;;;;;5.37;80.57;100282.72;1863042;77;21477;-58
2022/03/03 03:30:24;;;;;;;23.25;8.98;;;;;;;5.38;80.55;100283.11;1864759;77;21128;-58
2022/03/03 03:32:52;;;;;;;23.95;8.80;;;;;;;5.39;80.53;100284.84;1864593;77;21095;-59
2022/03/03 03:35:21;;;;;;;18.37;7.80;;;;;;;5.34;80.57;100272.34;1870333;76;21188;-59
2022/03/03 03:37:51;;;;;;;22.42;8.55;;;;;;;5.33;80.58;100270.65;1880028;76;21030;-60
2022/03/03 03:40:20;;;;;;;19.75;7.40;;;;;;;5.30;80.60;100269.87;1880588;76;21497;-61
2022/03/03 03:42:49;;;;;;;16.60;7.83;;;;;;;5.31;80.55;100269.84;1880782;76;21109;-59
2022/03/03 03:45:18;;;;;;;22.37;7.65;;;;;;;5.30;80.57;100272.02;1880566;76;21054;-59
2022/03/03 03:47:47;;;;;;;19.67;7.72;;;;;;;5.28;80.58;100260.77;1880066;76;21054;-58
2022/03/03 03:50:16;;;;;;;20.70;8.15;;;;;;;5.25;80.64;100243.86;1880644;76;21038;-58
2022/03/03 03:52:45;;;;;;;24.18;8.88;;;;;;;5.22;80.70;100223.08;1880522;76;21113;-58
2022/03/03 03:55:14;;;;;;;21.90;9.23;;;;;;;5.19;80.80;100205.72;1880550;76;21570;-57
2022/03/03 03:57:43;;;;;;;21.87;9.10;;;;;;;5.20;80.84;100201.34;1880679;76;21488;-57
2022/03/03 04:00:14;;;;;;;22.98;8.80;;;;;;;5.18;80.85;100200.53;1880571;76;21544;-58
2022/03/03 04:02:44;;;;;;;19.85;8.35;;;;;;;5.16;80.86;100192.73;1878842;76;21108;-58
2022/03/03 04:05:13;;;;;;;19.82;7.78;;;;;;;5.16;80.87;100194.50;1875403;76;21125;-58
2022/03/03 04:07:42;;;;;;;16.27;6.58;;;;;;;5.12;80.99;100196.78;1881220;76;21512;-58
2022/03/03 04:10:12;;;;;;;21.75;7.92;;;;;;;5.10;81.01;100194.67;1881128;76;21473;-57
2022/03/03 04:12:41;;;;;;;15.70;6.90;;;;;;;5.08;81.04;100183.41;1881010;76;21096;-57
2022/03/03 04:15:11;;;;;;;15.80;8.05;;;;;;;5.07;81.04;100177.77;1865907;76;21040;-60
2022/03/03 04:17:40;;;;;;;20.27;7.15;;;;;;;5.03;81.09;100179.59;1862721;77;21146;-60
2022/03/03 04:20:10;;;;;;;20.08;8.25;;;;;;;4.99;81.15;100180.13;1862596;77;21075;-60
2022/03/03 04:22:39;;;;;;;14.35;5.60;;;;;;;4.99;81.21;100196.23;1862698;77;21117;-59
2022/03/03 04:25:12;;;;;;;21.93;7.50;;;;;;;4.97;81.29;100197.57;1861210;77;21458;-61
2022/03/03 04:27:41;;;;;;;26.95;11.00;;;;;;;4.98;81.31;100204.94;1865085;76;21039;-59
2022/03/03 04:30:11;;;;;;;24.15;8.80;;;;;;;4.96;81.86;100208.92;1880690;76;21493;-60
2022/03/03 04:32:42;;;;;;;18.35;6.97;;;;;;;4.94;82.37;100193.75;1880609;76;21113;-60
2022/03/03 04:35:11;;;;;;;27.30;9.43;;;;;;;4.93;82.89;100194.63;1879997;75;21035;-59
2022/03/03 04:37:40;;;;;;;26.95;10.60;;;;;;;4.91;83.26;100192.52;1864824;76;21462;-59
2022/03/03 04:40:10;;;;;;;21.75;7.85;;;;;;;4.90;83.53;100188.17;1864856;77;21486;-59
2022/03/03 04:42:39;;;;;;;25.25;8.48;;;;;;;4.89;83.77;100183.88;1864782;76;21561;-59
2022/03/03 04:45:08;;;;;;;26.25;10.00;;;;;;;4.89;83.95;100183.88;1863273;77;21462;-59
2022/03/03 04:47:37;;;;;;;16.37;7.25;;;;;;;4.90;84.00;100180.35;1864855;77;21015;-59
2022/03/03 04:50:07;;;;;;;17.37;7.17;;;;;;;4.89;84.27;100174.74;1864738;77;21044;-59
2022/03/03 04:52:36;;;;;;;22.42;8.25;;;;;;;4.89;84.30;100164.73;1864891;77;21105;-59
2022/03/03 04:55:06;;;;;;;21.70;7.75;;;;;;;4.88;84.41;100155.20;1861671;76;21138;-59
2022/03/03 04:57:35;;;;;;;17.20;6.78;;;;;;;4.85;84.62;100136.59;1833806;76;21070;-59
2022/03/03 05:00:07;;;;;;;16.93;6.75;;;;;;;4.83;84.76;100137.92;1833736;78;21065;-59
2022/03/03 05:02:36;;;;;;;14.07;6.62;;;;;;;4.77;85.03;100136.75;1833481;78;21041;-59
2022/03/03 05:05:06;;;;;;;17.65;7.87;;;;;;;4.76;85.17;100138.13;1836873;77;21441;-60
2022/03/03 05:07:34;;;;;;;17.67;7.03;;;;;;;4.73;85.16;100135.58;1864824;77;21035;-59
2022/03/03 05:10:05;;;;;;;15.72;6.87;;;;;;;4.74;85.26;100138.58;1864818;77;21165;-60
2022/03/03 05:12:33;;;;;;;20.88;8.83;;;;;;;4.75;85.23;100111.16;1864778;77;21048;-59
2022/03/03 05:15:03;;;;;;;20.75;8.68;;;;;;;4.73;85.27;100101.22;1864634;77;21091;-59
2022/03/03 05:17:32;;;;;;;20.60;8.20;;;;;;;4.73;85.18;100121.23;1863078;77;21469;-59
2022/03/03 05:20:00;;;;;;;20.88;9.30;;;;;;;4.72;85.11;100136.46;1864824;77;21123;-59
2022/03/03 05:22:29;;;;;;;14.85;7.03;;;;;;;4.70;85.08;100127.82;1864809;77;21090;-59
2022/03/03 05:24:58;;;;;;;16.52;7.12;;;;;;;4.70;85.02;100116.08;1864828;77;21043;-58
2022/03/03 05:27:26;;;;;;;21.50;8.15;;;;;;;4.68;84.98;100112.20;1863125;77;21003;-59
2022/03/03 05:29:55;;;;;;;15.28;5.97;;;;;;;4.67;84.92;100120.06;1864714;77;21188;-59
2022/03/03 05:32:24;;;;;;;17.30;6.65;;;;;;;4.64;84.90;100126.22;1864789;77;21063;-60
2022/03/03 05:34:52;;;;;;;18.57;7.85;;;;;;;4.62;84.82;100114.52;1864220;77;21085;-59
2022/03/03 05:37:25;;;;;;;15.53;6.00;;;;;;;4.60;84.75;100110.25;1877128;76;21172;-60
2022/03/03 05:39:55;;;;;;;18.83;7.67;;;;;;;4.57;84.69;100104.64;1886432;76;21050;-61
2022/03/03 05:42:24;;;;;;;12.85;5.22;;;;;;;4.56;84.68;100098.19;1885996;76;21122;-61
2022/03/03 05:44:54;;;;;;;12.33;5.72;;;;;;;4.55;84.65;100086.88;1884838;76;21070;-62
2022/03/03 05:47:24;;;;;;;14.40;5.10;;;;;;;4.53;84.60;100083.45;1884179;76;21544;-62
2022/03/03 05:49:55;;;;;;;11.03;4.28;;;;;;;4.50;84.56;100077.03;1883994;75;21171;-62
2022/03/03 05:52:25;;;;;;;9.88;3.87;;;;;;;4.50;84.51;100069.21;1884304;76;21050;-61
2022/03/03 05:54:53;;;;;;;7.70;3.33;;;;;;;4.45;84.37;100066.70;1884168;76;21451;-61
2022/03/03 05:57:37;;;;;;;4.25;1.70;;;;;;;4.42;84.22;100073.74;1884177;76;21590;-62
2022/03/03 06:00:09;;;;;;;6.97;2.87;;;;;;;4.35;84.05;100082.60;1883891;76;21104;-60
2022/03/03 06:02:41;;;;;;;16.00;4.25;;;;;;;4.24;84.08;100092.85;1883166;76;21548;-62
2022/03/03 06:05:10;;;;;;;13.05;4.78;;;;;;;4.12;84.52;100103.55;1883363;76;21077;-61
2022/03/03 06:07:41;;;;;;;14.35;4.67;;;;;;;4.10;84.77;100097.97;1883785;76;21477;-61
2022/03/03 06:10:13;;;;;;;11.90;3.90;;;;;;;4.13;84.87;100089.64;1884068;75;21050;-61
2022/03/03 06:12:55;;;;;;;8.80;4.10;;;;;;;4.10;84.95;100092.30;1884156;75;21050;-61
2022/03/03 06:15:25;;;;;;;14.83;4.67;;;;;;;4.10;84.99;100091.00;1883748;76;21066;-60
2022/03/03 06:17:55;;;;;;;;;;;;;;;4.11;85.02;100073.61;1887095;76;21214;-60
2022/03/03 06:20:27;;;;;;;8.50;3.92;;;;;;;4.13;84.95;100050.56;1884205;76;20171;-60
2022/03/03 06:22:55;;;;;;;11.35;4.03;;;;;;;4.13;84.95;100028.83;1884185;76;21574;-61
2022/03/03 06:25:24;;;;;;;10.40;3.92;;;;;;;4.10;85.05;100018.05;1884227;76;21030;-60
2022/03/03 06:27:53;;;;;;;10.88;4.15;;;;;;;4.11;85.06;100008.02;1883920;76;21081;-61
2022/03/03 06:30:22;;;;;;;11.68;5.17;;;;;;;4.11;85.10;100008.02;1883528;76;21136;-62
2022/03/03 06:32:50;;;;;;;13.95;4.97;;;;;;;4.13;85.10;100004.08;1883640;76;21078;-59
2022/03/03 06:35:19;;;;;;;15.40;5.17;;;;;;;4.18;85.13;100005.68;1883743;76;21026;-58
2022/03/03 06:37:48;;;;;;;15.78;5.75;;;;;;;4.22;85.10;100002.55;1884681;76;21046;-61
2022/03/03 06:40:17;;;;;;;12.58;4.45;;;;;;;4.27;85.01;100007.67;1886205;76;21046;-62
2022/03/03 06:42:45;;;;;;;9.53;3.87;;;;;;;4.27;85.04;100011.58;1886127;76;21120;-62
2022/03/03 06:45:15;;;;;;;8.90;3.75;;;;;;;4.27;85.01;100014.19;1886234;76;21018;-62
2022/03/03 06:47:46;;;;;;;14.00;3.20;;;;;;;4.20;85.03;100023.43;1885941;76;21581;-60
2022/03/03 06:50:15;;;;;;;10.85;3.30;;;;;;;4.17;84.97;100029.16;1886104;76;21054;-61
2022/03/03 06:52:45;;;;;;;6.25;2.77;;;;;;;4.09;85.10;100031.11;1886130;76;21168;-61
2022/03/03 06:55:16;;;;;;;10.43;3.15;;;;;;;4.08;85.16;100024.17;1885991;76;21501;-61
2022/03/03 06:57:46;;;;;;;6.97;2.65;;;;;;;4.04;85.26;100015.60;1885904;76;21508;-61
2022/03/03 07:00:17;;;;;;;7.60;3.00;;;;;;;4.00;85.31;100000.91;1887083;75;21133;-59
2022/03/03 07:02:47;;;;;;;7.85;2.55;;;;;;;3.97;85.44;100004.46;1884674;75;21477;-59
2022/03/03 07:05:17;;;;;;;6.65;2.45;;;;;;;3.95;85.63;100006.25;1887233;75;21017;-59
2022/03/03 07:07:47;;;;;;;7.40;3.20;;;;;;;3.96;85.68;100011.84;1911370;75;21014;-60
2022/03/03 07:10:23;;;;;;;6.05;2.87;;;;;;;3.96;85.70;100013.61;1886135;75;21019;-60
2022/03/03 07:12:54;;;;;;;6.33;2.30;;;;;;;3.99;85.67;100008.34;1886072;76;21488;-61
2022/03/03 07:15:25;;;;;;;6.37;2.58;;;;;;;3.96;85.70;99996.67;1886359;76;21139;-59
2022/03/03 07:17:56;;;;;;;8.03;3.55;;;;;;;3.97;85.58;99997.10;1886044;75;21113;-60
2022/03/03 07:20:33;;;;;;;9.15;3.40;;;;;;;3.99;85.50;99985.73;1885761;76;21195;-60
2022/03/03 07:23:10;;;;;;;9.88;3.25;;;;;;;4.01;85.45;99979.20;1885695;75;21450;-62
2022/03/03 07:25:43;;;;;;;12.68;3.67;;;;;;;4.06;85.38;99977.34;1863410;76;21028;-59
2022/03/03 07:28:13;;;;;;;7.12;3.37;;;;;;;4.11;85.33;99968.94;1865017;77;21071;-59
2022/03/03 07:30:44;;;;;;;7.75;3.02;;;;;;;4.15;85.29;99975.81;1864663;77;21051;-59
2022/03/03 07:33:15;;;;;;;6.92;2.90;;;;;;;4.13;85.28;99968.48;1864985;77;21051;-58
2022/03/03 07:35:45;;;;;;;8.70;3.15;;;;;;;4.16;85.21;99947.54;1843275;77;21497;-58
2022/03/03 07:38:19;;;;;;;7.90;3.42;;;;;;;4.16;85.15;99937.58;1847245;77;21082;-61
2022/03/03 07:40:49;;;;;;;6.70;3.20;;;;;;;4.13;85.08;99935.91;1863599;77;21018;-63
2022/03/03 07:43:18;;;;;;;8.25;3.35;;;;;;;4.11;85.08;99937.67;1883172;76;21497;-60
2022/03/03 07:45:48;;;;;;;8.95;4.05;;;;;;;4.09;85.05;99935.56;1854302;77;21445;-64
2022/03/03 07:48:17;;;;;;;8.50;3.92;;;;;;;4.10;85.04;99937.28;1854365;77;21053;-62
2022/03/03 07:50:45;;;;;;;5.87;3.27;;;;;;;4.08;85.04;99945.59;1854265;77;21030;-58
2022/03/03 07:53:15;;;;;;;6.95;2.83;;;;;;;4.02;85.20;99945.72;1854252;76;21176;-60
2022/03/03 07:55:54;;;;;;;7.10;2.87;;;;;;;4.03;85.22;99952.20;1855481;76;21554;-63
2022/03/03 07:58:26;;;;;;;8.40;2.75;;;;;;;4.01;85.19;99960.96;1892240;76;21113;-62
2022/03/03 08:00:58;;;;;;;5.95;2.60;;;;;;;3.98;85.23;99973.59;1892327;76;21015;-61
2022/03/03 08:03:27;;;;;;;5.10;2.50;;;;;;;3.97;85.33;99974.50;1892393;76;21554;-59
2022/03/03 08:05:57;;;;;;;6.87;2.50;;;;;;;4.02;85.37;99968.74;1892409;76;21444;-60
2022/03/03 08:08:29;;;;;;;6.12;2.50;;;;;;;4.02;85.20;99967.86;1893216;76;21104;-59
2022/03/03 08:11:03;;;;;;;5.62;2.58;;;;;;;4.04;85.03;99979.98;1893331;76;21021;-59
2022/03/03 08:13:33;;;;;;;6.58;2.77;;;;;;;4.09;84.99;99985.06;1893277;76;21460;-59
2022/03/03 08:16:02;;;;;;;5.40;2.40;;;;;;;4.10;84.88;99981.58;1893464;76;21116;-58
2022/03/03 08:18:36;;;;;;;8.98;2.35;;;;;;;4.09;84.72;99983.76;1893216;76;21077;-61
2022/03/03 08:21:06;;;;;;;4.67;2.15;;;;;;;4.01;84.63;99981.80;1892514;76;20999;-61
2022/03/03 08:23:35;;;;;;;4.05;2.12;;;;;;;3.95;84.68;99989.77;1892373;76;21054;-61
2022/03/03 08:26:04;;;;;;;4.00;1.82;;;;;;;3.91;84.81;99993.32;1892289;76;21617;-62
2022/03/03 08:28:33;;;;;;;4.35;1.82;;;;;;;3.87;84.69;99993.84;1892266;76;21022;-60
2022/03/03 08:31:03;;;;;;;5.75;2.37;;;;;;;3.86;84.56;99985.63;1893192;76;21038;-61
2022/03/03 08:33:41;;;;;;;4.72;2.25;;;;;;;3.80;84.37;99989.23;1893196;76;21030;-60
2022/03/03 08:36:16;;;;;;;3.95;1.67;;;;;;;3.77;84.43;99990.59;1893134;76;21070;-59
2022/03/03 08:38:48;;;;;;;3.12;1.70;;;;;;;3.74;84.50;99988.51;1889805;75;21290;-61
2022/03/03 08:41:19;;;;;;;6.10;2.77;;;;;;;3.77;84.45;99987.99;1874339;76;21050;-61
2022/03/03 08:43:52;;;;;;;1.67;1.20;;;;;;;3.76;84.38;99988.91;1874701;76;21540;-60
2022/03/03 08:46:26;;;;;;;4.20;1.92;;;;;;;3.74;84.14;99978.94;1874836;76;21066;-61
2022/03/03 08:48:55;;;;;;;;;;;;;;;3.71;83.98;99975.12;1877542;76;21108;-60
2022/03/03 08:51:24;;;;;;;3.37;1.30;;;;;;;3.66;84.09;99973.06;1874571;76;20172;-60
2022/03/03 08:53:53;;;;;;;3.65;1.40;;;;;;;3.62;84.20;99980.09;1874564;75;21794;-62
2022/03/03 08:56:27;;;;;;;2.52;1.57;;;;;;;3.63;84.21;99989.62;1875071;75;21572;-61
2022/03/03 08:58:54;;;;;;;3.55;1.62;;;;;;;3.67;84.07;99981.27;1886188;75;21140;-59
2022/03/03 09:01:23;;;;;;;2.30;1.02;;;;;;;3.67;83.93;99975.64;1881140;76;21096;-59
2022/03/03 09:03:52;;;;;;;6.58;1.50;;;;;;;3.62;83.96;99976.64;1873461;76;21034;-59
2022/03/03 09:06:21;;;;;;;2.55;1.20;;;;;;;3.59;83.93;99991.02;1888113;75;21026;-60
2022/03/03 09:08:50;;;;;;;2.00;1.30;;;;;;;3.58;83.84;99988.86;1880477;76;21050;-59
2022/03/03 09:11:20;;;;;;;2.87;1.20;;;;;;;3.56;83.53;99991.08;1880432;76;21123;-60
2022/03/03 09:13:49;;;;;;;2.92;1.35;;;;;;;3.60;83.28;99997.95;1882925;75;21038;-62
2022/03/03 09:16:18;;;;;;;3.40;1.42;;;;;;;3.59;83.23;99989.26;1902122;75;21806;-61
2022/03/03 09:18:48;;;;;;;3.85;1.30;;;;;;;3.63;83.09;99983.54;1904493;75;20998;-60
2022/03/03 09:21:17;;;;;;;2.40;1.20;;;;;;;3.63;82.88;99976.61;1901599;75;21794;-59
2022/03/03 09:23:46;;;;;;;3.60;1.20;;;;;;;3.58;82.83;99984.08;1904744;75;21125;-59
2022/03/03 09:26:15;;;;;;;1.60;1.10;;;;;;;3.57;82.75;99988.44;1870166;76;21042;-58
2022/03/03 09:28:44;;;;;;;2.02;0.88;;;;;;;3.53;82.57;99987.25;1880372;76;21132;-58
2022/03/03 09:31:13;;;;;;;2.25;1.32;;;;;;;3.53;82.53;99985.95;1880559;76;21086;-56
2022/03/03 09:33:43;;;;;;;4.62;1.30;;;;;;;3.47;82.28;99985.20;1880623;76;21534;-58
2022/03/03 09:36:11;;;;;;;2.25;1.07;;;;;;;3.45;82.16;99976.56;1879869;74;21034;-59
2022/03/03 09:38:40;;;;;;;2.00;1.20;;;;;;;3.44;82.18;99973.54;1880282;76;21038;-61
2022/03/03 09:41:09;;;;;;;3.05;1.37;;;;;;;3.33;82.25;99954.70;1848697;75;21070;-58
2022/03/03 09:43:37;;;;;;;3.02;1.27;;;;;;;3.23;82.38;99942.80;1864668;76;21552;-60
2022/03/03 09:46:06;;;;;;;2.83;1.40;;;;;;;3.15;82.44;99916.08;1838250;76;21181;-57
2022/03/03 09:48:35;;;;;;;2.17;1.12;;;;;;;3.04;82.33;99891.17;1863286;76;21548;-60
2022/03/03 09:51:04;;;;;;;2.85;1.20;;;;;;;2.93;82.08;99876.22;1843135;76;21159;-60
2022/03/03 09:53:33;;;;;;;2.90;1.42;;;;;;;2.90;81.96;99866.75;1825627;77;21125;-60
2022/03/03 09:56:02;;;;;;;15.30;6.00;;;;;;;2.85;81.83;99865.98;1823971;79;21517;-60
2022/03/03 09:58:31;;;;;;;4.00;1.90;;;;;;;2.80;81.83;99868.28;1839443;77;21461;-62
2022/03/03 10:00:59;;;;;;;3.40;1.80;;;;;;;2.78;81.87;99859.66;1856224;77;21526;-60
2022/03/03 10:03:37;;;;;;;3.27;1.75;;;;;;;2.77;82.03;99850.17;1863607;77;21157;-60
2022/03/03 10:06:06;;;;;;;2.72;1.30;;;;;;;2.73;82.26;99844.59;1864666;77;21129;-61
2022/03/03 10:08:37;;;;;;;2.67;1.47;;;;;;;2.75;82.52;99844.11;1864909;77;21067;-58
2022/03/03 10:11:09;;;;;;;3.42;1.52;;;;;;;2.74;82.61;99842.42;1864965;77;21573;-59
2022/03/03 10:13:48;;;;;;;3.30;1.70;;;;;;;2.80;82.41;99844.42;1864851;77;21051;-59
2022/03/03 10:16:30;;;;;;;2.98;1.55;;;;;;;2.90;82.31;99833.41;1864991;76;21113;-62
2022/03/03 10:19:02;;;;;;;3.62;2.10;;;;;;;2.99;82.09;99834.92;1864751;77;21132;-61
2022/03/03 10:21:33;;;;;;;3.20;1.90;;;;;;;2.99;81.84;99828.00;1864184;76;21039;-61
2022/03/03 10:24:03;;;;;;;4.45;1.72;;;;;;;2.92;81.80;99839.42;1864990;77;21105;-62
2022/03/03 10:26:38;;;;;;;5.90;1.92;;;;;;;2.87;81.70;99825.66;1865395;76;21047;-62
2022/03/03 10:29:21;;;;;;;3.25;1.72;;;;;;;2.93;81.55;99824.21;1864764;77;21043;-62
2022/03/03 10:31:55;;;;;;;4.15;2.02;;;;;;;2.99;81.41;99820.61;1864889;77;21109;-62
2022/03/03 10:34:24;;;;;;;;;;;;;;;3.04;81.31;99808.38;1867102;77;21115;-61
2022/03/03 10:36:58;;;;;;;5.42;2.00;;;;;;;3.08;81.29;99800.48;1862872;77;20164;-61
2022/03/03 10:39:45;;;;;;;3.45;1.57;;;;;;;3.00;81.08;99793.73;1863024;77;21051;-61
2022/03/03 10:42:17;;;;;;;4.00;1.95;;;;;;;2.98;81.13;99802.86;1862694;77;21548;-62
2022/03/03 10:44:47;;;;;;;4.12;2.25;;;;;;;2.94;81.24;99803.83;1862956;77;21494;-62
2022/03/03 10:47:18;;;;;;;2.50;1.50;;;;;;;2.87;81.41;99807.45;1862972;77;21048;-62
2022/03/03 10:49:51;;;;;;;3.42;1.60;;;;;;;2.89;81.49;99801.32;1936187;73;21122;-60
2022/03/03 10:52:28;;;;;;;2.08;1.50;;;;;;;2.98;81.44;99787.72;1935844;74;21521;-62
2022/03/03 10:55:06;;;;;;;2.75;1.30;;;;;;;2.97;81.40;99782.97;1935718;74;21023;-61
2022/03/03 10:57:44;;;;;;;2.58;1.07;;;;;;;2.96;81.44;99775.20;1935771;74;21035;-61
2022/03/03 11:00:23;;;;;;;5.20;2.33;;;;;;;2.98;81.49;99776.86;1935813;74;21144;-61
2022/03/03 11:02:56;;;;;;;1.12;1.00;;;;;;;3.03;81.43;99784.57;1935956;74;21093;-62
2022/03/03 11:05:27;;;;;;;2.02;1.20;;;;;;;3.04;81.25;99793.64;1935637;73;21055;-62
2022/03/03 11:07:57;;;;;;;7.53;4.33;;;;;;;2.91;81.50;99793.49;1935776;74;21019;-61
2022/03/03 11:10:29;;;;;;;3.33;1.47;;;;;;;2.93;81.56;99778.70;1935919;74;21023;-61
2022/03/03 11:12:58;;;;;;;2.08;1.20;;;;;;;2.96;81.53;99778.64;1935923;74;21066;-62
2022/03/03 11:15:33;;;;;;;1.67;1.10;;;;;;;2.89;81.24;99780.52;1935755;74;21047;-61
2022/03/03 11:17:58;;;;;;;2.75;1.20;;;;;;;2.88;81.33;99787.08;1934817;74;21023;-61
2022/03/03 11:20:27;;;;;;;1.02;0.90;;;;;;;2.88;81.30;99792.28;1935831;74;21108;-61
2022/03/03 11:22:57;;;;;;;5.37;2.25;;;;;;;2.82;81.49;99806.28;1935889;74;21505;-61
2022/03/03 11:25:35;;;;;;;23.42;11.75;;;;;;;2.88;81.51;99815.69;1935898;73;21022;-61
2022/03/03 11:28:14;;;;;;;4.87;1.95;;;;;;;2.97;81.48;99818.50;1935915;74;21439;-62
2022/03/03 11:30:38;;;;;;;3.75;2.00;;;;;;;3.02;81.42;99824.00;1934850;74;21121;-62
2022/03/03 11:33:30;;;;;;;2.77;1.70;;;;;;;3.04;81.40;99817.47;1935961;74;21023;-62
2022/03/03 11:36:05;;;;;;;1.40;1.17;;;;;;;3.09;81.35;99809.97;1936030;74;21574;-62
2022/03/03 11:38:48;;;;;;;2.20;1.15;;;;;;;3.08;81.29;99797.00;1935694;74;21082;-61
2022/03/03 11:41:17;;;;;;;2.72;1.62;;;;;;;3.03;81.25;99788.02;1935669;74;21485;-62
2022/03/03 11:43:48;;;;;;;3.67;1.47;;;;;;;3.02;81.29;99803.20;1935993;74;21446;-61